Diego Jimenez Torres Airport


Codes: TJFA/FAJ
Name: Diego Jimenez Torres Airport
City: Fajardo
Country: Puerto Rico
Elevation: 64 ft.
Wikipedia:

Photos at Diego Jimenez Torres Airport


   Photos courtesy of SpottingLog. You can add your own sightings and photos by signing up for a free trial today.



No photos found.

Weather at Diego Jimenez Torres Airport


Time (UTC)DescriptionTempratureWindCloud coverageVisibilityPressureHumidity
13-Jun-2024 03:00Few Clouds28°C9 mph, E22%10000m1018hPa79%
13-Jun-2024 06:00Light Rain27°C9 mph, E27%10000m1016hPa83%
13-Jun-2024 09:00Light Rain26°C9 mph, E31%10000m1015hPa86%
13-Jun-2024 12:00Light Rain27°C11 mph, E42%10000m1016hPa81%
13-Jun-2024 15:00Light Rain28°C11 mph, E30%10000m1016hPa73%
13-Jun-2024 18:00Light Rain29°C13 mph, E40%10000m1015hPa75%
13-Jun-2024 21:00Light Rain28°C11 mph, E38%10000m1014hPa77%
14-Jun-2024 00:00Light Rain26°C9 mph, NE31%10000m1016hPa86%
14-Jun-2024 03:00Light Rain26°C7 mph, E52%10000m1016hPa86%
14-Jun-2024 06:00Light Rain26°C7 mph, NE55%10000m1014hPa85%
14-Jun-2024 09:00Light Rain25°C4 mph, E59%10000m1014hPa87%
14-Jun-2024 12:00Light Rain27°C7 mph, E49%10000m1015hPa80%
14-Jun-2024 15:00Light Rain28°C9 mph, E24%10000m1015hPa72%
14-Jun-2024 18:00Light Rain29°C9 mph, E28%10000m1014hPa71%
14-Jun-2024 21:00Light Rain28°C11 mph, SE43%10000m1013hPa76%
15-Jun-2024 00:00Light Rain26°C7 mph, SE37%10000m1014hPa83%
15-Jun-2024 03:00Light Rain26°C7 mph, SE39%10000m1015hPa81%
15-Jun-2024 06:00Light Rain25°C7 mph, S28%10000m1014hPa85%
15-Jun-2024 09:00Light Rain25°C7 mph, S30%10000m1015hPa85%
15-Jun-2024 12:00Light Rain27°C7 mph, S33%10000m1016hPa77%
15-Jun-2024 15:00Light Rain28°C9 mph, SE33%10000m1017hPa71%
15-Jun-2024 18:00Light Rain29°C11 mph, SE27%10000m1015hPa70%
15-Jun-2024 21:00Clear Sky28°C11 mph, SE7%10000m1014hPa73%
16-Jun-2024 00:00Light Rain26°C9 mph, SE18%10000m1016hPa82%
16-Jun-2024 03:00Few Clouds26°C7 mph, SE15%10000m1016hPa83%
16-Jun-2024 06:00Light Rain26°C7 mph, SE21%10000m1015hPa82%
16-Jun-2024 09:00Few Clouds25°C4 mph, SE11%10000m1015hPa84%
16-Jun-2024 12:00Light Rain27°C7 mph, SE14%10000m1016hPa75%
16-Jun-2024 15:00Light Rain29°C9 mph, SE25%10000m1016hPa68%
16-Jun-2024 18:00Scattered Clouds29°C9 mph, SE44%10000m1015hPa70%
16-Jun-2024 21:00Overcast Clouds28°C9 mph, SE92%10000m1014hPa72%
17-Jun-2024 00:00Light Rain26°C7 mph, E84%10000m1015hPa81%
17-Jun-2024 03:00Broken Clouds26°C7 mph, E79%10000m1016hPa78%
17-Jun-2024 06:00Light Rain26°C4 mph, E87%10000m1015hPa81%
17-Jun-2024 09:00Light Rain25°C7 mph, E97%10000m1014hPa84%
17-Jun-2024 12:00Light Rain27°C9 mph, SE80%10000m1015hPa73%
17-Jun-2024 15:00Broken Clouds28°C9 mph, SE68%10000m1015hPa64%
17-Jun-2024 18:00Broken Clouds29°C9 mph, SE52%10000m1014hPa64%
17-Jun-2024 21:00Few Clouds28°C9 mph, E17%10000m1013hPa69%
18-Jun-2024 00:00Scattered Clouds26°C7 mph, NE28%10000m1014hPa82%